sensor_id;sensor_type;location;lat;lon;timestamp;P1;durP1;ratioP1;P2;durP2;ratioP2
8857;SDS011;4465;50.904;4.696;2022-11-23T00:00:41;16.83;;;3.00;;
8857;SDS011;4465;50.904;4.696;2022-11-23T00:03:10;14.65;;;2.25;;
8857;SDS011;4465;50.904;4.696;2022-11-23T00:05:40;15.48;;;2.72;;
8857;SDS011;4465;50.904;4.696;2022-11-23T00:08:06;11.27;;;2.25;;
8857;SDS011;4465;50.904;4.696;2022-11-23T00:10:32;10.32;;;2.42;;
8857;SDS011;4465;50.904;4.696;2022-11-23T00:12:58;13.30;;;2.20;;
8857;SDS011;4465;50.904;4.696;2022-11-23T00:15:24;13.30;;;2.00;;
8857;SDS011;4465;50.904;4.696;2022-11-23T00:17:53;15.32;;;1.90;;
8857;SDS011;4465;50.904;4.696;2022-11-23T00:20:22;15.27;;;2.42;;
8857;SDS011;4465;50.904;4.696;2022-11-23T00:22:48;15.82;;;2.35;;
8857;SDS011;4465;50.904;4.696;2022-11-23T00:25:14;12.27;;;1.92;;
8857;SDS011;4465;50.904;4.696;2022-11-23T00:27:39;15.02;;;2.08;;
8857;SDS011;4465;50.904;4.696;2022-11-23T00:30:05;18.52;;;3.30;;
8857;SDS011;4465;50.904;4.696;2022-11-23T00:32:32;13.93;;;2.95;;
8857;SDS011;4465;50.904;4.696;2022-11-23T00:34:58;17.63;;;2.45;;
8857;SDS011;4465;50.904;4.696;2022-11-23T00:37:26;16.27;;;3.22;;
8857;SDS011;4465;50.904;4.696;2022-11-23T00:39:52;21.48;;;3.22;;
8857;SDS011;4465;50.904;4.696;2022-11-23T00:42:18;18.40;;;2.45;;
8857;SDS011;4465;50.904;4.696;2022-11-23T00:44:47;15.52;;;2.10;;
8857;SDS011;4465;50.904;4.696;2022-11-23T00:47:14;14.50;;;2.13;;
8857;SDS011;4465;50.904;4.696;2022-11-23T00:49:40;18.95;;;2.13;;
8857;SDS011;4465;50.904;4.696;2022-11-23T00:52:06;15.93;;;1.90;;
8857;SDS011;4465;50.904;4.696;2022-11-23T00:54:32;19.50;;;2.30;;
8857;SDS011;4465;50.904;4.696;2022-11-23T00:56:58;16.20;;;3.03;;
8857;SDS011;4465;50.904;4.696;2022-11-23T00:59:26;11.60;;;2.25;;
8857;SDS011;4465;50.904;4.696;2022-11-23T01:01:53;16.10;;;2.40;;
8857;SDS011;4465;50.904;4.696;2022-11-23T01:04:19;12.63;;;2.17;;
8857;SDS011;4465;50.904;4.696;2022-11-23T01:06:45;18.67;;;2.33;;
8857;SDS011;4465;50.904;4.696;2022-11-23T01:09:16;13.35;;;2.20;;
8857;SDS011;4465;50.904;4.696;2022-11-23T01:11:42;19.27;;;3.33;;
8857;SDS011;4465;50.904;4.696;2022-11-23T01:14:10;15.55;;;2.22;;
8857;SDS011;4465;50.904;4.696;2022-11-23T01:16:37;20.85;;;2.67;;
8857;SDS011;4465;50.904;4.696;2022-11-23T01:19:06;11.52;;;2.30;;
8857;SDS011;4465;50.904;4.696;2022-11-23T01:21:34;13.13;;;2.17;;
8857;SDS011;4465;50.904;4.696;2022-11-23T01:24:05;11.50;;;2.37;;
8857;SDS011;4465;50.904;4.696;2022-11-23T01:26:36;18.95;;;2.20;;
8857;SDS011;4465;50.904;4.696;2022-11-23T01:29:02;20.83;;;3.10;;
8857;SDS011;4465;50.904;4.696;2022-11-23T01:31:29;16.35;;;2.67;;
8857;SDS011;4465;50.904;4.696;2022-11-23T01:33:56;20.80;;;2.60;;
8857;SDS011;4465;50.904;4.696;2022-11-23T01:36:30;20.95;;;3.40;;
8857;SDS011;4465;50.904;4.696;2022-11-23T01:39:00;17.42;;;2.55;;
8857;SDS011;4465;50.904;4.696;2022-11-23T01:41:29;11.65;;;3.22;;
8857;SDS011;4465;50.904;4.696;2022-11-23T01:43:58;13.15;;;2.30;;
8857;SDS011;4465;50.904;4.696;2022-11-23T01:46:26;14.75;;;3.58;;
8857;SDS011;4465;50.904;4.696;2022-11-23T01:48:56;19.08;;;3.83;;
8857;SDS011;4465;50.904;4.696;2022-11-23T01:54:01;17.00;;;2.28;;
8857;SDS011;4465;50.904;4.696;2022-11-23T01:56:39;19.27;;;4.22;;
8857;SDS011;4465;50.904;4.696;2022-11-23T01:59:11;16.63;;;2.20;;
8857;SDS011;4465;50.904;4.696;2022-11-23T02:01:40;16.83;;;2.50;;
8857;SDS011;4465;50.904;4.696;2022-11-23T02:04:07;20.77;;;2.92;;
8857;SDS011;4465;50.904;4.696;2022-11-23T02:06:38;16.65;;;2.22;;
8857;SDS011;4465;50.904;4.696;2022-11-23T02:09:05;18.10;;;2.50;;
8857;SDS011;4465;50.904;4.696;2022-11-23T02:11:32;30.77;;;3.53;;
8857;SDS011;4465;50.904;4.696;2022-11-23T02:13:58;21.27;;;2.80;;
8857;SDS011;4465;50.904;4.696;2022-11-23T02:16:24;17.17;;;2.55;;
8857;SDS011;4465;50.904;4.696;2022-11-23T02:18:50;17.35;;;2.67;;
8857;SDS011;4465;50.904;4.696;2022-11-23T02:21:17;21.27;;;2.72;;
8857;SDS011;4465;50.904;4.696;2022-11-23T02:26:26;17.92;;;2.70;;
8857;SDS011;4465;50.904;4.696;2022-11-23T02:31:41;12.75;;;2.35;;
8857;SDS011;4465;50.904;4.696;2022-11-23T02:34:07;21.73;;;2.90;;
8857;SDS011;4465;50.904;4.696;2022-11-23T02:36:43;19.35;;;3.35;;
8857;SDS011;4465;50.904;4.696;2022-11-23T02:41:59;13.60;;;2.40;;
8857;SDS011;4465;50.904;4.696;2022-11-23T02:46:57;21.85;;;3.30;;
8857;SDS011;4465;50.904;4.696;2022-11-23T02:49:23;19.38;;;2.42;;
8857;SDS011;4465;50.904;4.696;2022-11-23T02:51:49;19.70;;;3.20;;
8857;SDS011;4465;50.904;4.696;2022-11-23T02:54:15;20.63;;;3.15;;
8857;SDS011;4465;50.904;4.696;2022-11-23T02:56:41;19.27;;;3.47;;
8857;SDS011;4465;50.904;4.696;2022-11-23T02:59:07;27.88;;;3.35;;
8857;SDS011;4465;50.904;4.696;2022-11-23T03:01:33;20.25;;;3.20;;
8857;SDS011;4465;50.904;4.696;2022-11-23T03:03:59;20.20;;;3.35;;
8857;SDS011;4465;50.904;4.696;2022-11-23T03:06:25;17.58;;;2.63;;
8857;SDS011;4465;50.904;4.696;2022-11-23T03:08:50;21.88;;;2.53;;
8857;SDS011;4465;50.904;4.696;2022-11-23T03:11:17;16.92;;;2.72;;
8857;SDS011;4465;50.904;4.696;2022-11-23T03:13:43;18.15;;;2.70;;
8857;SDS011;4465;50.904;4.696;2022-11-23T03:16:08;13.60;;;3.42;;
8857;SDS011;4465;50.904;4.696;2022-11-23T03:18:35;17.67;;;2.92;;
8857;SDS011;4465;50.904;4.696;2022-11-23T03:21:06;15.00;;;2.58;;
8857;SDS011;4465;50.904;4.696;2022-11-23T03:23:33;17.58;;;2.33;;
8857;SDS011;4465;50.904;4.696;2022-11-23T03:26:01;21.45;;;3.10;;
8857;SDS011;4465;50.904;4.696;2022-11-23T03:28:28;19.60;;;3.40;;
8857;SDS011;4465;50.904;4.696;2022-11-23T03:30:56;19.55;;;2.60;;
8857;SDS011;4465;50.904;4.696;2022-11-23T03:33:22;22.17;;;2.78;;
8857;SDS011;4465;50.904;4.696;2022-11-23T03:35:48;18.83;;;3.13;;
8857;SDS011;4465;50.904;4.696;2022-11-23T03:38:14;20.02;;;3.28;;
8857;SDS011;4465;50.904;4.696;2022-11-23T03:40:40;18.05;;;2.83;;
8857;SDS011;4465;50.904;4.696;2022-11-23T03:43:09;19.10;;;3.05;;
8857;SDS011;4465;50.904;4.696;2022-11-23T03:45:41;18.00;;;2.90;;
8857;SDS011;4465;50.904;4.696;2022-11-23T03:48:07;19.48;;;3.53;;
8857;SDS011;4465;50.904;4.696;2022-11-23T03:50:35;21.27;;;3.63;;
8857;SDS011;4465;50.904;4.696;2022-11-23T03:53:02;17.95;;;3.30;;
8857;SDS011;4465;50.904;4.696;2022-11-23T03:55:28;24.98;;;3.38;;
8857;SDS011;4465;50.904;4.696;2022-11-23T03:57:54;18.67;;;2.60;;
8857;SDS011;4465;50.904;4.696;2022-11-23T04:00:24;27.00;;;3.67;;
8857;SDS011;4465;50.904;4.696;2022-11-23T04:02:51;23.95;;;3.50;;
8857;SDS011;4465;50.904;4.696;2022-11-23T04:05:17;17.95;;;3.15;;
8857;SDS011;4465;50.904;4.696;2022-11-23T04:07:47;16.40;;;2.67;;
8857;SDS011;4465;50.904;4.696;2022-11-23T04:10:15;23.95;;;2.70;;
8857;SDS011;4465;50.904;4.696;2022-11-23T04:12:42;19.67;;;2.75;;
8857;SDS011;4465;50.904;4.696;2022-11-23T04:15:09;22.70;;;3.47;;
8857;SDS011;4465;50.904;4.696;2022-11-23T04:17:38;19.20;;;2.67;;
8857;SDS011;4465;50.904;4.696;2022-11-23T04:20:04;20.33;;;3.20;;
8857;SDS011;4465;50.904;4.696;2022-11-23T04:22:30;18.65;;;3.15;;
8857;SDS011;4465;50.904;4.696;2022-11-23T04:24:56;19.83;;;3.47;;
8857;SDS011;4465;50.904;4.696;2022-11-23T04:27:22;17.00;;;2.60;;
8857;SDS011;4465;50.904;4.696;2022-11-23T04:29:48;21.52;;;2.72;;
8857;SDS011;4465;50.904;4.696;2022-11-23T04:32:14;23.58;;;2.50;;
8857;SDS011;4465;50.904;4.696;2022-11-23T04:34:40;24.50;;;2.88;;
8857;SDS011;4465;50.904;4.696;2022-11-23T04:37:06;21.25;;;2.65;;
8857;SDS011;4465;50.904;4.696;2022-11-23T04:39:34;16.60;;;2.63;;
8857;SDS011;4465;50.904;4.696;2022-11-23T04:42:04;20.17;;;3.10;;
8857;SDS011;4465;50.904;4.696;2022-11-23T04:44:31;21.63;;;4.07;;
8857;SDS011;4465;50.904;4.696;2022-11-23T04:46:59;18.52;;;4.30;;
8857;SDS011;4465;50.904;4.696;2022-11-23T04:49:25;18.45;;;2.42;;
8857;SDS011;4465;50.904;4.696;2022-11-23T04:51:51;19.88;;;3.08;;
8857;SDS011;4465;50.904;4.696;2022-11-23T04:54:17;24.33;;;3.33;;
8857;SDS011;4465;50.904;4.696;2022-11-23T04:56:46;18.73;;;3.63;;
8857;SDS011;4465;50.904;4.696;2022-11-23T04:59:14;20.52;;;4.13;;
8857;SDS011;4465;50.904;4.696;2022-11-23T05:01:46;19.65;;;2.70;;
8857;SDS011;4465;50.904;4.696;2022-11-23T05:04:12;13.38;;;3.17;;
8857;SDS011;4465;50.904;4.696;2022-11-23T05:06:40;23.10;;;3.08;;
8857;SDS011;4465;50.904;4.696;2022-11-23T05:09:06;12.15;;;2.35;;
8857;SDS011;4465;50.904;4.696;2022-11-23T05:11:33;17.08;;;2.75;;
8857;SDS011;4465;50.904;4.696;2022-11-23T05:13:59;22.25;;;3.50;;
8857;SDS011;4465;50.904;4.696;2022-11-23T05:16:25;17.75;;;2.40;;
8857;SDS011;4465;50.904;4.696;2022-11-23T05:18:51;18.13;;;2.78;;
8857;SDS011;4465;50.904;4.696;2022-11-23T05:21:20;19.50;;;2.70;;
8857;SDS011;4465;50.904;4.696;2022-11-23T05:23:48;22.67;;;3.53;;
8857;SDS011;4465;50.904;4.696;2022-11-23T05:26:17;18.48;;;3.13;;
8857;SDS011;4465;50.904;4.696;2022-11-23T05:28:43;21.75;;;3.38;;
8857;SDS011;4465;50.904;4.696;2022-11-23T05:31:09;23.95;;;2.83;;
8857;SDS011;4465;50.904;4.696;2022-11-23T05:33:37;23.15;;;3.08;;
8857;SDS011;4465;50.904;4.696;2022-11-23T05:36:03;18.30;;;3.00;;
8857;SDS011;4465;50.904;4.696;2022-11-23T05:38:30;18.10;;;2.58;;
8857;SDS011;4465;50.904;4.696;2022-11-23T05:40:56;25.23;;;3.17;;
8857;SDS011;4465;50.904;4.696;2022-11-23T05:43:22;18.00;;;3.20;;
8857;SDS011;4465;50.904;4.696;2022-11-23T05:45:48;18.38;;;2.70;;
8857;SDS011;4465;50.904;4.696;2022-11-23T05:48:14;11.57;;;2.55;;
8857;SDS011;4465;50.904;4.696;2022-11-23T05:50:40;21.70;;;3.72;;
8857;SDS011;4465;50.904;4.696;2022-11-23T05:53:08;20.92;;;2.97;;
8857;SDS011;4465;50.904;4.696;2022-11-23T05:55:35;17.65;;;3.45;;
8857;SDS011;4465;50.904;4.696;2022-11-23T05:58:00;22.23;;;3.42;;
8857;SDS011;4465;50.904;4.696;2022-11-23T06:00:26;26.58;;;4.20;;
8857;SDS011;4465;50.904;4.696;2022-11-23T06:02:57;22.92;;;3.67;;
8857;SDS011;4465;50.904;4.696;2022-11-23T06:05:25;18.50;;;2.75;;
8857;SDS011;4465;50.904;4.696;2022-11-23T06:07:51;14.77;;;2.47;;
8857;SDS011;4465;50.904;4.696;2022-11-23T06:10:18;13.90;;;3.08;;
8857;SDS011;4465;50.904;4.696;2022-11-23T06:12:46;19.25;;;2.90;;
8857;SDS011;4465;50.904;4.696;2022-11-23T06:15:14;19.25;;;3.42;;
8857;SDS011;4465;50.904;4.696;2022-11-23T06:17:43;21.50;;;3.25;;
8857;SDS011;4465;50.904;4.696;2022-11-23T06:20:11;20.77;;;3.08;;
8857;SDS011;4465;50.904;4.696;2022-11-23T06:22:37;21.27;;;2.95;;
8857;SDS011;4465;50.904;4.696;2022-11-23T06:25:04;22.98;;;2.70;;
8857;SDS011;4465;50.904;4.696;2022-11-23T06:27:32;16.75;;;2.72;;
8857;SDS011;4465;50.904;4.696;2022-11-23T06:29:58;19.40;;;3.10;;
8857;SDS011;4465;50.904;4.696;2022-11-23T06:32:24;17.67;;;2.95;;
8857;SDS011;4465;50.904;4.696;2022-11-23T06:34:50;17.30;;;2.50;;
8857;SDS011;4465;50.904;4.696;2022-11-23T06:37:16;19.02;;;2.83;;
8857;SDS011;4465;50.904;4.696;2022-11-23T06:39:42;28.58;;;5.13;;
8857;SDS011;4465;50.904;4.696;2022-11-23T06:42:08;25.70;;;3.00;;
8857;SDS011;4465;50.904;4.696;2022-11-23T06:44:35;24.17;;;2.97;;
8857;SDS011;4465;50.904;4.696;2022-11-23T06:47:01;22.52;;;4.10;;
8857;SDS011;4465;50.904;4.696;2022-11-23T06:49:27;20.27;;;3.00;;
8857;SDS011;4465;50.904;4.696;2022-11-23T06:51:54;16.23;;;2.70;;
8857;SDS011;4465;50.904;4.696;2022-11-23T06:54:19;17.35;;;2.60;;
8857;SDS011;4465;50.904;4.696;2022-11-23T06:56:45;17.52;;;3.08;;
8857;SDS011;4465;50.904;4.696;2022-11-23T06:59:11;13.98;;;2.40;;
8857;SDS011;4465;50.904;4.696;2022-11-23T07:01:40;16.73;;;2.40;;
8857;SDS011;4465;50.904;4.696;2022-11-23T07:04:06;18.70;;;2.97;;
8857;SDS011;4465;50.904;4.696;2022-11-23T07:06:33;18.63;;;3.08;;
8857;SDS011;4465;50.904;4.696;2022-11-23T07:08:59;18.83;;;3.55;;
8857;SDS011;4465;50.904;4.696;2022-11-23T07:11:28;17.63;;;2.78;;
8857;SDS011;4465;50.904;4.696;2022-11-23T07:13:57;19.90;;;3.20;;
8857;SDS011;4465;50.904;4.696;2022-11-23T07:16:23;19.02;;;3.40;;
8857;SDS011;4465;50.904;4.696;2022-11-23T07:18:50;19.17;;;3.25;;
8857;SDS011;4465;50.904;4.696;2022-11-23T07:21:18;24.73;;;3.60;;
8857;SDS011;4465;50.904;4.696;2022-11-23T07:23:49;23.33;;;3.20;;
8857;SDS011;4465;50.904;4.696;2022-11-23T07:26:20;19.13;;;3.55;;
8857;SDS011;4465;50.904;4.696;2022-11-23T07:28:46;24.17;;;5.63;;
8857;SDS011;4465;50.904;4.696;2022-11-23T07:31:12;25.38;;;3.92;;
8857;SDS011;4465;50.904;4.696;2022-11-23T07:33:46;28.42;;;4.65;;
8857;SDS011;4465;50.904;4.696;2022-11-23T07:36:12;17.63;;;3.03;;
8857;SDS011;4465;50.904;4.696;2022-11-23T07:38:42;17.55;;;4.18;;
8857;SDS011;4465;50.904;4.696;2022-11-23T07:41:08;21.38;;;3.55;;
8857;SDS011;4465;50.904;4.696;2022-11-23T07:43:34;19.98;;;4.28;;
8857;SDS011;4465;50.904;4.696;2022-11-23T07:46:03;24.67;;;4.30;;
8857;SDS011;4465;50.904;4.696;2022-11-23T07:48:29;16.40;;;3.78;;
8857;SDS011;4465;50.904;4.696;2022-11-23T07:50:57;22.77;;;4.18;;
8857;SDS011;4465;50.904;4.696;2022-11-23T07:53:24;32.15;;;5.03;;
8857;SDS011;4465;50.904;4.696;2022-11-23T07:55:56;21.63;;;3.95;;
8857;SDS011;4465;50.904;4.696;2022-11-23T07:58:25;15.63;;;3.83;;
8857;SDS011;4465;50.904;4.696;2022-11-23T08:00:58;15.32;;;4.20;;
8857;SDS011;4465;50.904;4.696;2022-11-23T08:03:24;20.40;;;4.65;;
8857;SDS011;4465;50.904;4.696;2022-11-23T08:05:50;24.63;;;5.13;;
8857;SDS011;4465;50.904;4.696;2022-11-23T08:08:17;18.95;;;4.50;;
8857;SDS011;4465;50.904;4.696;2022-11-23T08:10:43;19.20;;;3.95;;
8857;SDS011;4465;50.904;4.696;2022-11-23T08:13:10;20.63;;;4.00;;
8857;SDS011;4465;50.904;4.696;2022-11-23T08:15:35;16.02;;;3.85;;
8857;SDS011;4465;50.904;4.696;2022-11-23T08:18:04;13.98;;;3.00;;
8857;SDS011;4465;50.904;4.696;2022-11-23T08:20:33;20.55;;;3.53;;
8857;SDS011;4465;50.904;4.696;2022-11-23T08:22:59;19.05;;;3.20;;
8857;SDS011;4465;50.904;4.696;2022-11-23T08:25:25;23.45;;;3.65;;
8857;SDS011;4465;50.904;4.696;2022-11-23T08:30:19;16.10;;;2.45;;
8857;SDS011;4465;50.904;4.696;2022-11-23T08:32:48;12.10;;;3.00;;
8857;SDS011;4465;50.904;4.696;2022-11-23T08:35:14;20.00;;;3.15;;
8857;SDS011;4465;50.904;4.696;2022-11-23T08:37:40;20.45;;;4.15;;
8857;SDS011;4465;50.904;4.696;2022-11-23T08:40:08;20.77;;;2.90;;
8857;SDS011;4465;50.904;4.696;2022-11-23T08:42:34;19.85;;;3.03;;
8857;SDS011;4465;50.904;4.696;2022-11-23T08:45:05;17.98;;;2.40;;
8857;SDS011;4465;50.904;4.696;2022-11-23T08:47:32;12.95;;;3.22;;
8857;SDS011;4465;50.904;4.696;2022-11-23T08:49:59;15.60;;;2.80;;
8857;SDS011;4465;50.904;4.696;2022-11-23T08:52:27;16.90;;;2.88;;
8857;SDS011;4465;50.904;4.696;2022-11-23T08:54:53;17.48;;;3.00;;
8857;SDS011;4465;50.904;4.696;2022-11-23T08:57:21;19.10;;;3.17;;
8857;SDS011;4465;50.904;4.696;2022-11-23T08:59:47;16.77;;;2.88;;
8857;SDS011;4465;50.904;4.696;2022-11-23T09:02:13;13.98;;;2.75;;
8857;SDS011;4465;50.904;4.696;2022-11-23T09:04:44;13.73;;;3.10;;
8857;SDS011;4465;50.904;4.696;2022-11-23T09:07:13;16.83;;;3.95;;
8857;SDS011;4465;50.904;4.696;2022-11-23T09:09:39;14.25;;;2.55;;
8857;SDS011;4465;50.904;4.696;2022-11-23T09:12:07;14.38;;;3.25;;
8857;SDS011;4465;50.904;4.696;2022-11-23T09:14:35;11.65;;;2.50;;
8857;SDS011;4465;50.904;4.696;2022-11-23T09:17:01;17.30;;;2.50;;
8857;SDS011;4465;50.904;4.696;2022-11-23T09:19:28;21.27;;;3.33;;
8857;SDS011;4465;50.904;4.696;2022-11-23T09:21:54;13.85;;;3.08;;
8857;SDS011;4465;50.904;4.696;2022-11-23T09:24:20;9.25;;;2.45;;
8857;SDS011;4465;50.904;4.696;2022-11-23T09:26:46;15.52;;;4.43;;
8857;SDS011;4465;50.904;4.696;2022-11-23T09:29:12;15.13;;;2.58;;
8857;SDS011;4465;50.904;4.696;2022-11-23T09:31:38;11.70;;;2.67;;
8857;SDS011;4465;50.904;4.696;2022-11-23T09:34:04;11.77;;;2.58;;
8857;SDS011;4465;50.904;4.696;2022-11-23T09:36:31;11.83;;;2.07;;
8857;SDS011;4465;50.904;4.696;2022-11-23T09:38:59;8.50;;;2.45;;
8857;SDS011;4465;50.904;4.696;2022-11-23T09:49:05;15.73;;;2.50;;
8857;SDS011;4465;50.904;4.696;2022-11-23T09:51:43;20.42;;;2.55;;
8857;SDS011;4465;50.904;4.696;2022-11-23T09:56:59;11.85;;;2.97;;
8857;SDS011;4465;50.904;4.696;2022-11-23T09:59:35;7.60;;;2.35;;
8857;SDS011;4465;50.904;4.696;2022-11-23T10:04:39;10.90;;;2.30;;
8857;SDS011;4465;50.904;4.696;2022-11-23T10:12:20;7.22;;;2.10;;
8857;SDS011;4465;50.904;4.696;2022-11-23T10:15:08;9.10;;;2.07;;
8857;SDS011;4465;50.904;4.696;2022-11-23T10:20:36;6.75;;;2.45;;
8857;SDS011;4465;50.904;4.696;2022-11-23T10:23:27;10.73;;;2.30;;
8857;SDS011;4465;50.904;4.696;2022-11-23T10:26:06;11.98;;;2.60;;
8857;SDS011;4465;50.904;4.696;2022-11-23T10:28:37;10.95;;;2.75;;
8857;SDS011;4465;50.904;4.696;2022-11-23T10:31:06;8.35;;;2.30;;
8857;SDS011;4465;50.904;4.696;2022-11-23T10:33:41;10.95;;;2.30;;
8857;SDS011;4465;50.904;4.696;2022-11-23T10:36:17;10.00;;;2.28;;
8857;SDS011;4465;50.904;4.696;2022-11-23T10:38:43;11.57;;;2.38;;
8857;SDS011;4465;50.904;4.696;2022-11-23T10:41:12;11.75;;;2.50;;
8857;SDS011;4465;50.904;4.696;2022-11-23T10:46:27;12.65;;;2.53;;
8857;SDS011;4465;50.904;4.696;2022-11-23T10:48:53;9.70;;;2.45;;
8857;SDS011;4465;50.904;4.696;2022-11-23T10:51:22;9.50;;;2.00;;
8857;SDS011;4465;50.904;4.696;2022-11-23T10:54:00;8.45;;;2.50;;
8857;SDS011;4465;50.904;4.696;2022-11-23T10:56:28;10.70;;;2.20;;
8857;SDS011;4465;50.904;4.696;2022-11-23T10:58:56;9.80;;;2.35;;
8857;SDS011;4465;50.904;4.696;2022-11-23T11:01:25;15.32;;;2.05;;
8857;SDS011;4465;50.904;4.696;2022-11-23T11:03:54;13.32;;;1.70;;
8857;SDS011;4465;50.904;4.696;2022-11-23T11:06:27;12.57;;;2.25;;
8857;SDS011;4465;50.904;4.696;2022-11-23T11:09:02;9.23;;;2.25;;
8857;SDS011;4465;50.904;4.696;2022-11-23T11:11:31;10.55;;;1.83;;
8857;SDS011;4465;50.904;4.696;2022-11-23T11:16:51;5.88;;;1.88;;
8857;SDS011;4465;50.904;4.696;2022-11-23T11:19:26;9.60;;;1.77;;
8857;SDS011;4465;50.904;4.696;2022-11-23T11:21:57;8.98;;;1.90;;
8857;SDS011;4465;50.904;4.696;2022-11-23T11:24:29;8.70;;;1.80;;
8857;SDS011;4465;50.904;4.696;2022-11-23T11:26:58;12.00;;;2.00;;
8857;SDS011;4465;50.904;4.696;2022-11-23T11:29:32;8.35;;;2.10;;
8857;SDS011;4465;50.904;4.696;2022-11-23T11:32:22;15.02;;;1.80;;
8857;SDS011;4465;50.904;4.696;2022-11-23T11:37:51;14.10;;;1.60;;
8857;SDS011;4465;50.904;4.696;2022-11-23T11:43:31;8.20;;;2.00;;
8857;SDS011;4465;50.904;4.696;2022-11-23T11:46:09;9.20;;;1.98;;
8857;SDS011;4465;50.904;4.696;2022-11-23T11:48:44;8.15;;;1.77;;
8857;SDS011;4465;50.904;4.696;2022-11-23T11:53:56;5.53;;;1.45;;
8857;SDS011;4465;50.904;4.696;2022-11-23T11:56:47;7.15;;;1.45;;
8857;SDS011;4465;50.904;4.696;2022-11-23T12:01:47;12.90;;;1.50;;
8857;SDS011;4465;50.904;4.696;2022-11-23T12:04:23;7.40;;;1.70;;
8857;SDS011;4465;50.904;4.696;2022-11-23T12:09:29;9.32;;;2.08;;
8857;SDS011;4465;50.904;4.696;2022-11-23T12:12:00;5.78;;;1.52;;
8857;SDS011;4465;50.904;4.696;2022-11-23T12:14:28;5.22;;;1.40;;
8857;SDS011;4465;50.904;4.696;2022-11-23T12:17:07;7.93;;;1.65;;
8857;SDS011;4465;50.904;4.696;2022-11-23T12:19:38;9.10;;;1.55;;
8857;SDS011;4465;50.904;4.696;2022-11-23T12:22:27;4.40;;;1.25;;
8857;SDS011;4465;50.904;4.696;2022-11-23T12:25:23;6.85;;;1.40;;
8857;SDS011;4465;50.904;4.696;2022-11-23T12:31:17;7.40;;;1.42;;
8857;SDS011;4465;50.904;4.696;2022-11-23T12:48:01;7.88;;;1.52;;
8857;SDS011;4465;50.904;4.696;2022-11-23T12:53:43;7.13;;;1.90;;
8857;SDS011;4465;50.904;4.696;2022-11-23T12:56:41;5.55;;;1.20;;
8857;SDS011;4465;50.904;4.696;2022-11-23T12:59:10;6.45;;;1.52;;
8857;SDS011;4465;50.904;4.696;2022-11-23T13:01:38;6.13;;;1.60;;
8857;SDS011;4465;50.904;4.696;2022-11-23T13:22:43;8.25;;;1.50;;
8857;SDS011;4465;50.904;4.696;2022-11-23T13:25:21;5.03;;;1.48;;
8857;SDS011;4465;50.904;4.696;2022-11-23T13:40:31;8.93;;;1.95;;
8857;SDS011;4465;50.904;4.696;2022-11-23T13:43:00;7.15;;;1.75;;
8857;SDS011;4465;50.904;4.696;2022-11-23T13:45:46;7.10;;;1.92;;
8857;SDS011;4465;50.904;4.696;2022-11-23T13:48:44;10.20;;;2.53;;
8857;SDS011;4465;50.904;4.696;2022-11-23T13:51:27;4.32;;;1.40;;
8857;SDS011;4465;50.904;4.696;2022-11-23T13:53:59;7.60;;;1.42;;
8857;SDS011;4465;50.904;4.696;2022-11-23T13:56:29;5.60;;;1.50;;
8857;SDS011;4465;50.904;4.696;2022-11-23T14:04:41;5.13;;;1.50;;
8857;SDS011;4465;50.904;4.696;2022-11-23T14:07:52;5.65;;;2.13;;
8857;SDS011;4465;50.904;4.696;2022-11-23T14:10:20;8.88;;;2.92;;
8857;SDS011;4465;50.904;4.696;2022-11-23T14:12:49;5.80;;;1.50;;
8857;SDS011;4465;50.904;4.696;2022-11-23T14:15:18;8.88;;;1.67;;
8857;SDS011;4465;50.904;4.696;2022-11-23T14:17:50;10.82;;;2.17;;
8857;SDS011;4465;50.904;4.696;2022-11-23T14:29:18;7.60;;;1.75;;
8857;SDS011;4465;50.904;4.696;2022-11-23T14:43:29;8.55;;;2.00;;
8857;SDS011;4465;50.904;4.696;2022-11-23T14:45:59;6.13;;;2.53;;
8857;SDS011;4465;50.904;4.696;2022-11-23T14:48:32;6.10;;;2.80;;
8857;SDS011;4465;50.904;4.696;2022-11-23T14:53:31;4.15;;;2.00;;
8857;SDS011;4465;50.904;4.696;2022-11-23T14:56:00;5.88;;;1.67;;
8857;SDS011;4465;50.904;4.696;2022-11-23T14:58:27;4.40;;;1.65;;
8857;SDS011;4465;50.904;4.696;2022-11-23T15:01:00;4.50;;;1.80;;
8857;SDS011;4465;50.904;4.696;2022-11-23T15:03:28;6.72;;;2.15;;
8857;SDS011;4465;50.904;4.696;2022-11-23T15:06:00;5.55;;;1.90;;
8857;SDS011;4465;50.904;4.696;2022-11-23T15:08:38;2.50;;;1.48;;
8857;SDS011;4465;50.904;4.696;2022-11-23T15:11:16;6.13;;;1.80;;
8857;SDS011;4465;50.904;4.696;2022-11-23T15:13:47;4.97;;;1.80;;
8857;SDS011;4465;50.904;4.696;2022-11-23T15:16:15;6.72;;;2.00;;
8857;SDS011;4465;50.904;4.696;2022-11-23T15:18:43;4.88;;;1.65;;
8857;SDS011;4465;50.904;4.696;2022-11-23T15:23:39;7.30;;;2.00;;
8857;SDS011;4465;50.904;4.696;2022-11-23T15:26:12;9.63;;;2.33;;
8857;SDS011;4465;50.904;4.696;2022-11-23T15:28:40;8.07;;;2.05;;
8857;SDS011;4465;50.904;4.696;2022-11-23T15:34:10;4.32;;;2.00;;
8857;SDS011;4465;50.904;4.696;2022-11-23T15:36:38;6.43;;;2.10;;
8857;SDS011;4465;50.904;4.696;2022-11-23T15:39:11;4.78;;;1.88;;
8857;SDS011;4465;50.904;4.696;2022-11-23T15:41:43;5.18;;;2.05;;
8857;SDS011;4465;50.904;4.696;2022-11-23T15:44:28;5.90;;;2.17;;
8857;SDS011;4465;50.904;4.696;2022-11-23T15:47:04;5.82;;;2.10;;
8857;SDS011;4465;50.904;4.696;2022-11-23T15:49:36;10.63;;;2.97;;
8857;SDS011;4465;50.904;4.696;2022-11-23T15:52:05;6.57;;;2.33;;
8857;SDS011;4465;50.904;4.696;2022-11-23T15:54:41;6.68;;;2.58;;
8857;SDS011;4465;50.904;4.696;2022-11-23T15:57:23;6.80;;;2.50;;
8857;SDS011;4465;50.904;4.696;2022-11-23T16:02:22;8.15;;;3.10;;
8857;SDS011;4465;50.904;4.696;2022-11-23T16:05:15;11.82;;;2.75;;
8857;SDS011;4465;50.904;4.696;2022-11-23T16:07:51;5.55;;;2.47;;
8857;SDS011;4465;50.904;4.696;2022-11-23T16:18:13;9.93;;;2.95;;
8857;SDS011;4465;50.904;4.696;2022-11-23T16:20:56;7.90;;;2.47;;
8857;SDS011;4465;50.904;4.696;2022-11-23T16:26:15;7.53;;;2.95;;
8857;SDS011;4465;50.904;4.696;2022-11-23T16:28:54;5.93;;;2.80;;
8857;SDS011;4465;50.904;4.696;2022-11-23T16:31:27;12.27;;;2.72;;
8857;SDS011;4465;50.904;4.696;2022-11-23T16:34:04;5.43;;;2.47;;
8857;SDS011;4465;50.904;4.696;2022-11-23T16:36:41;7.03;;;2.60;;
8857;SDS011;4465;50.904;4.696;2022-11-23T16:39:10;11.60;;;2.63;;
8857;SDS011;4465;50.904;4.696;2022-11-23T16:41:36;10.77;;;2.80;;
8857;SDS011;4465;50.904;4.696;2022-11-23T16:44:02;6.43;;;2.78;;
8857;SDS011;4465;50.904;4.696;2022-11-23T16:46:32;9.13;;;2.92;;
8857;SDS011;4465;50.904;4.696;2022-11-23T16:48:58;8.73;;;3.00;;
8857;SDS011;4465;50.904;4.696;2022-11-23T16:51:25;20.27;;;6.88;;
8857;SDS011;4465;50.904;4.696;2022-11-23T16:53:51;14.75;;;6.53;;
8857;SDS011;4465;50.904;4.696;2022-11-23T16:56:24;8.60;;;4.00;;
8857;SDS011;4465;50.904;4.696;2022-11-23T16:58:52;11.88;;;4.50;;
8857;SDS011;4465;50.904;4.696;2022-11-23T17:01:21;11.65;;;3.53;;
8857;SDS011;4465;50.904;4.696;2022-11-23T17:03:49;7.97;;;2.90;;
8857;SDS011;4465;50.904;4.696;2022-11-23T17:06:18;14.33;;;3.77;;
8857;SDS011;4465;50.904;4.696;2022-11-23T17:08:48;9.40;;;3.22;;
8857;SDS011;4465;50.904;4.696;2022-11-23T17:11:16;10.27;;;3.83;;
8857;SDS011;4465;50.904;4.696;2022-11-23T17:13:47;11.52;;;4.10;;
8857;SDS011;4465;50.904;4.696;2022-11-23T17:18:44;14.93;;;4.07;;
8857;SDS011;4465;50.904;4.696;2022-11-23T17:21:10;7.93;;;3.60;;
8857;SDS011;4465;50.904;4.696;2022-11-23T17:23:37;11.43;;;4.03;;
8857;SDS011;4465;50.904;4.696;2022-11-23T17:26:31;9.73;;;4.60;;
8857;SDS011;4465;50.904;4.696;2022-11-23T17:28:58;14.80;;;3.97;;
8857;SDS011;4465;50.904;4.696;2022-11-23T17:31:27;14.63;;;3.78;;
8857;SDS011;4465;50.904;4.696;2022-11-23T17:33:53;13.80;;;4.47;;
8857;SDS011;4465;50.904;4.696;2022-11-23T17:36:20;15.88;;;3.83;;
8857;SDS011;4465;50.904;4.696;2022-11-23T17:38:48;8.95;;;3.78;;
8857;SDS011;4465;50.904;4.696;2022-11-23T17:41:16;11.23;;;4.03;;
8857;SDS011;4465;50.904;4.696;2022-11-23T17:43:42;15.18;;;4.70;;
8857;SDS011;4465;50.904;4.696;2022-11-23T17:46:15;12.80;;;4.60;;
8857;SDS011;4465;50.904;4.696;2022-11-23T17:48:43;16.42;;;4.18;;
8857;SDS011;4465;50.904;4.696;2022-11-23T17:51:10;15.47;;;4.83;;
8857;SDS011;4465;50.904;4.696;2022-11-23T17:53:56;12.77;;;4.55;;
8857;SDS011;4465;50.904;4.696;2022-11-23T17:56:24;14.98;;;4.47;;